createdAt,value
2024-03-12T00:02:11.593Z,12.42
2024-03-12T00:04:39.279Z,12.48
2024-03-12T00:07:08.179Z,14.28
2024-03-12T00:09:36.033Z,15.35
2024-03-12T00:12:03.679Z,14.49
2024-03-12T00:14:34.960Z,13.38
2024-03-12T00:17:02.912Z,12.54
2024-03-12T00:19:30.550Z,12.83
2024-03-12T00:21:58.735Z,14.96
2024-03-12T00:24:26.422Z,15.48
2024-03-12T00:26:54.686Z,14.29
2024-03-12T00:29:23.183Z,13.21
2024-03-12T00:31:52.637Z,12.45
2024-03-12T00:34:21.864Z,13.10
2024-03-12T00:36:49.508Z,15.18
2024-03-12T00:39:17.286Z,15.45
2024-03-12T00:41:44.877Z,14.26
2024-03-12T00:44:12.521Z,13.21
2024-03-12T00:46:41.481Z,12.48
2024-03-12T00:49:10.564Z,13.31
2024-03-12T00:51:39.706Z,15.41
2024-03-12T00:54:07.335Z,15.42
2024-03-12T00:56:34.960Z,14.15
2024-03-12T00:59:03.053Z,13.12
2024-03-12T01:01:31.681Z,12.38
2024-03-12T01:03:59.560Z,13.05
2024-03-12T01:06:27.571Z,15.17
2024-03-12T01:08:56.391Z,15.48
2024-03-12T01:11:24.127Z,14.24
2024-03-12T01:13:52.230Z,13.11
2024-03-12T01:16:19.821Z,12.85
2024-03-12T01:18:47.686Z,14.77
2024-03-12T01:21:15.405Z,15.60
2024-03-12T01:23:44.382Z,14.50
2024-03-12T01:26:12.029Z,13.34
2024-03-12T01:28:39.652Z,12.51
2024-03-12T01:31:07.326Z,13.20
2024-03-12T01:33:36.236Z,15.24
2024-03-12T01:36:07.078Z,15.52
2024-03-12T01:38:35.788Z,14.27
2024-03-12T01:41:06.580Z,13.19
2024-03-12T01:43:35.429Z,12.46
2024-03-12T01:46:04.157Z,13.49
2024-03-12T01:48:32.955Z,15.55
2024-03-12T01:51:00.647Z,15.31
2024-03-12T01:53:28.660Z,14.05
2024-03-12T01:55:56.311Z,13.05
2024-03-12T01:58:23.938Z,12.34
2024-03-12T02:00:51.634Z,12.83
2024-03-12T02:03:20.572Z,14.91
2024-03-12T02:05:49.027Z,15.49
2024-03-12T02:08:18.451Z,14.31
2024-03-12T02:10:47.377Z,13.18
2024-03-12T02:13:15.294Z,12.41
2024-03-12T02:15:43.259Z,13.18
2024-03-12T02:18:11.326Z,15.00
2024-03-12T02:20:39.678Z,15.12
2024-03-12T02:23:07.593Z,13.90
2024-03-12T02:25:35.405Z,12.90
2024-03-12T02:28:04.020Z,12.58
2024-03-12T02:30:32.334Z,14.15
2024-03-12T02:33:01.133Z,15.28
2024-03-12T02:35:28.887Z,14.43
2024-03-12T02:37:56.894Z,13.31
2024-03-12T02:40:24.961Z,12.49
2024-03-12T02:42:52.735Z,12.43
2024-03-12T02:45:22.355Z,14.05
2024-03-12T02:47:50.568Z,15.32
2024-03-12T02:50:19.650Z,14.74
2024-03-12T02:52:47.517Z,13.57
2024-03-12T02:55:15.480Z,12.68
2024-03-12T02:57:43.514Z,12.55
2024-03-12T03:00:15.417Z,14.24
2024-03-12T03:02:43.998Z,15.34
2024-03-12T03:05:12.475Z,14.42
2024-03-12T03:07:41.899Z,13.31
2024-03-12T03:10:11.893Z,12.50
2024-03-12T03:12:41.092Z,12.91
2024-03-12T03:15:13.687Z,14.72
2024-03-12T03:17:44.118Z,15.52
2024-03-12T03:20:18.446Z,14.45
2024-03-12T03:22:46.707Z,13.27
2024-03-12T03:25:15.296Z,12.47
2024-03-12T03:27:43.752Z,13.01
2024-03-12T03:30:14.491Z,14.84
2024-03-12T03:32:42.505Z,15.50
2024-03-12T03:35:10.422Z,14.37
2024-03-12T03:37:38.396Z,13.22
2024-03-12T03:40:06.229Z,12.47
2024-03-12T03:42:34.174Z,13.45
2024-03-12T03:45:02.082Z,15.14
2024-03-12T03:47:35.900Z,15.13
2024-03-12T03:50:04.425Z,13.87
2024-03-12T03:52:32.206Z,12.88
2024-03-12T03:55:00.041Z,12.59
2024-03-12T03:57:27.769Z,14.19
2024-03-12T03:59:58.130Z,15.35
2024-03-12T04:02:26.256Z,14.48
2024-03-12T04:04:53.910Z,13.32
2024-03-12T04:07:21.589Z,12.48
2024-03-12T04:09:49.663Z,12.56
2024-03-12T04:12:17.323Z,14.32
2024-03-12T04:14:44.940Z,15.33
2024-03-12T04:17:12.581Z,14.44
2024-03-12T04:19:41.696Z,13.28
2024-03-12T04:22:10.142Z,12.45
2024-03-12T04:24:39.373Z,13.03
2024-03-12T04:27:07.170Z,14.85
2024-03-12T04:29:34.811Z,15.35
2024-03-12T04:32:03.696Z,14.25
2024-03-12T04:34:31.640Z,13.17
2024-03-12T04:36:59.870Z,12.39
2024-03-12T04:39:33.686Z,12.67
2024-03-12T04:42:03.389Z,14.52
2024-03-12T04:44:31.067Z,15.37
2024-03-12T04:46:58.733Z,14.39
2024-03-12T04:49:26.446Z,13.28
2024-03-12T04:51:54.091Z,12.47
2024-03-12T04:54:21.836Z,12.85
2024-03-12T04:56:51.981Z,14.65
2024-03-12T04:59:19.860Z,15.39
2024-03-12T05:01:49.767Z,14.33
2024-03-12T05:04:22.586Z,13.24
2024-03-12T05:06:51.884Z,12.44
2024-03-12T05:09:19.905Z,12.92
2024-03-12T05:11:49.011Z,14.70
2024-03-12T05:14:16.699Z,15.41
2024-03-12T05:16:44.321Z,14.34
2024-03-12T05:19:12.666Z,13.22
2024-03-12T05:21:40.909Z,12.42
2024-03-12T05:24:08.967Z,12.86
2024-03-12T05:26:45.394Z,14.76
2024-03-12T05:29:13.484Z,15.50
2024-03-12T05:31:41.868Z,14.39
2024-03-12T05:34:17.392Z,13.30
2024-03-12T05:36:53.351Z,12.48
2024-03-12T05:39:49.306Z,12.55
2024-03-12T05:42:35.880Z,14.69
2024-03-12T05:45:22.268Z,15.37
2024-03-12T05:48:09.081Z,14.10
2024-03-12T05:50:37.118Z,12.95
2024-03-12T05:53:04.781Z,12.37
2024-03-12T05:55:32.472Z,13.51
2024-03-12T05:58:00.120Z,15.19
2024-03-12T06:00:28.181Z,15.08
2024-03-12T06:02:55.867Z,13.88
2024-03-12T06:05:23.476Z,12.90
2024-03-12T06:07:53.733Z,12.63
2024-03-12T06:10:23.081Z,14.28
2024-03-12T06:12:51.144Z,15.42
2024-03-12T06:15:18.850Z,14.55
2024-03-12T06:17:47.124Z,13.43
2024-03-12T06:20:14.888Z,12.61
2024-03-12T06:22:43.541Z,12.61
2024-03-12T06:25:11.790Z,14.39
2024-03-12T06:27:40.185Z,15.44
2024-03-12T06:30:08.046Z,14.53
2024-03-12T06:32:35.976Z,13.43
2024-03-12T06:35:03.630Z,12.63
2024-03-12T06:37:31.327Z,12.60
2024-03-12T06:40:02.013Z,14.33
2024-03-12T06:42:32.999Z,15.42
2024-03-12T06:45:02.670Z,14.55
2024-03-12T06:47:33.623Z,13.45
2024-03-12T06:50:01.365Z,12.64
2024-03-12T06:52:29.234Z,12.85
2024-03-12T06:54:57.111Z,14.64
2024-03-12T06:57:26.300Z,15.56
2024-03-12T06:59:54.888Z,14.62
2024-03-12T07:02:23.562Z,13.50
2024-03-12T07:04:52.456Z,12.71
2024-03-12T07:07:21.204Z,13.05
2024-03-12T07:09:50.800Z,14.92
2024-03-12T07:12:20.028Z,15.72
2024-03-12T07:14:56.455Z,14.65
2024-03-12T07:17:24.567Z,13.50
2024-03-12T07:19:53.402Z,12.76
2024-03-12T07:22:21.773Z,13.28
2024-03-12T07:24:49.993Z,15.05
2024-03-12T07:27:17.614Z,15.57
2024-03-12T07:29:45.346Z,14.47
2024-03-12T07:32:14.662Z,13.42
2024-03-12T07:34:43.597Z,12.76
2024-03-12T07:37:11.523Z,13.78
2024-03-12T07:39:39.884Z,15.39
2024-03-12T07:42:14.809Z,15.49
2024-03-12T07:44:43.264Z,14.29
2024-03-12T07:47:11.677Z,13.30
2024-03-12T07:49:39.460Z,13.11
2024-03-12T07:52:07.453Z,14.70
2024-03-12T07:54:36.016Z,15.93
2024-03-12T07:57:03.658Z,15.37
2024-03-12T07:59:31.744Z,14.21
2024-03-12T08:01:59.676Z,13.33
2024-03-12T08:04:27.614Z,13.31
2024-03-12T08:06:56.211Z,14.88
2024-03-12T08:09:24.543Z,15.89
2024-03-12T08:11:52.516Z,15.08
2024-03-12T08:14:20.886Z,14.00
2024-03-12T08:16:50.469Z,13.71
2024-03-12T08:19:18.745Z,15.39
2024-03-12T08:21:46.619Z,16.42
2024-03-12T08:24:14.326Z,15.66
2024-03-12T08:26:44.712Z,14.53
2024-03-12T08:29:13.083Z,13.68
2024-03-12T08:31:47.486Z,14.19
2024-03-12T08:34:19.416Z,16.09
2024-03-12T08:36:48.834Z,16.81
2024-03-12T08:39:17.251Z,15.75
2024-03-12T08:41:45.452Z,14.63
2024-03-12T08:44:15.456Z,13.79
2024-03-12T08:46:43.159Z,13.82
2024-03-12T08:49:12.680Z,15.57
2024-03-12T08:51:41.173Z,16.65
2024-03-12T08:54:10.443Z,15.79
2024-03-12T08:56:38.264Z,14.67
2024-03-12T08:59:06.597Z,13.86
2024-03-12T09:01:34.920Z,14.05
2024-03-12T09:04:03.936Z,15.80
2024-03-12T09:06:33.906Z,16.74
2024-03-12T09:09:01.904Z,15.81
2024-03-12T09:11:29.650Z,14.73
2024-03-12T09:13:57.341Z,13.93
2024-03-12T09:16:25.002Z,13.94
2024-03-12T09:18:55.005Z,15.65
2024-03-12T09:21:22.766Z,16.90
2024-03-12T09:23:57.009Z,16.35
2024-03-12T09:26:30.041Z,15.14
2024-03-12T09:28:59.295Z,14.30
2024-03-12T09:31:27.046Z,14.09
2024-03-12T09:33:55.606Z,15.66
2024-03-12T09:36:23.453Z,16.78
2024-03-12T09:38:52.278Z,16.02
2024-03-12T09:41:20.176Z,14.94
2024-03-12T09:43:47.807Z,14.17
2024-03-12T09:46:16.683Z,14.59
2024-03-12T09:48:46.416Z,16.29
2024-03-12T09:51:14.323Z,16.80
2024-03-12T09:53:43.610Z,15.77
2024-03-12T09:56:11.925Z,14.78
2024-03-12T09:58:39.929Z,14.06
2024-03-12T10:01:08.100Z,14.01
2024-03-12T10:03:38.968Z,15.72
2024-03-12T10:06:07.992Z,17.09
2024-03-12T10:08:36.180Z,16.62
2024-03-12T10:11:10.140Z,15.55
2024-03-12T10:13:39.177Z,14.68
2024-03-12T10:16:09.017Z,14.08
2024-03-12T10:18:38.852Z,14.25
2024-03-12T10:21:08.494Z,16.04
2024-03-12T10:23:38.002Z,17.11
2024-03-12T10:26:08.871Z,16.32
2024-03-12T10:28:38.973Z,15.29
2024-03-12T10:31:10.708Z,14.57
2024-03-12T10:33:39.409Z,14.49
2024-03-12T10:36:12.180Z,16.13
2024-03-12T10:38:41.361Z,17.21
2024-03-12T10:41:09.247Z,16.42
2024-03-12T10:43:36.887Z,15.45
2024-03-12T10:46:05.330Z,14.75
2024-03-12T10:48:33.015Z,14.21
2024-03-12T10:51:00.697Z,14.35
2024-03-12T10:53:31.172Z,16.14
2024-03-12T10:56:00.059Z,17.23
2024-03-12T10:58:27.845Z,16.42
2024-03-12T11:00:56.411Z,15.41
2024-03-12T11:03:25.379Z,14.66
2024-03-12T11:05:53.462Z,14.11
2024-03-12T11:08:21.086Z,14.21
2024-03-12T11:10:49.040Z,15.99
2024-03-12T11:13:21.844Z,17.18
2024-03-12T11:15:49.716Z,16.45
2024-03-12T11:18:17.433Z,15.46
2024-03-12T11:20:45.089Z,14.72
2024-03-12T11:23:15.903Z,14.17
2024-03-12T11:25:50.505Z,14.68
2024-03-12T11:28:22.322Z,16.61
2024-03-12T11:30:50.405Z,17.42
2024-03-12T11:33:19.263Z,16.50
2024-03-12T11:35:48.036Z,15.52
2024-03-12T11:38:17.095Z,14.84
2024-03-12T11:40:45.077Z,14.34
2024-03-12T11:43:13.014Z,14.48
2024-03-12T11:45:41.211Z,16.29
2024-03-12T11:48:09.239Z,17.41
2024-03-12T11:50:38.137Z,16.68
2024-03-12T11:53:07.996Z,15.71
2024-03-12T11:55:35.611Z,15.01
2024-03-12T11:58:03.299Z,14.52
2024-03-12T12:00:33.230Z,14.57
2024-03-12T12:03:00.897Z,16.29
2024-03-12T12:05:28.919Z,17.53
2024-03-12T12:07:57.569Z,16.94
2024-03-12T12:10:25.268Z,16.02
2024-03-12T12:12:52.953Z,15.35
2024-03-12T12:15:20.601Z,14.90
2024-03-12T12:20:37.014Z,17.31
2024-03-12T12:23:04.648Z,18.27
2024-03-12T12:25:32.403Z,17.45
2024-03-12T12:28:00.082Z,16.49
2024-03-12T12:30:28.256Z,15.79
2024-03-12T12:32:56.013Z,15.27
2024-03-12T12:35:24.349Z,14.87
2024-03-12T12:37:52.224Z,15.22
2024-03-12T12:40:21.756Z,17.06
2024-03-12T12:42:49.918Z,18.10
2024-03-12T12:45:17.637Z,17.33
2024-03-12T12:47:45.300Z,16.38
2024-03-12T12:50:12.951Z,15.68
2024-03-12T12:52:41.843Z,15.17
2024-03-12T12:55:11.230Z,14.79
2024-03-12T12:57:43.796Z,14.88
2024-03-12T13:00:16.674Z,16.64
2024-03-12T13:02:47.608Z,17.83
2024-03-12T13:05:16.190Z,17.12
2024-03-12T13:07:45.275Z,16.17
2024-03-12T13:10:19.821Z,15.45
2024-03-12T13:12:48.343Z,14.90
2024-03-12T13:15:16.021Z,14.93
2024-03-12T13:17:44.180Z,16.61
2024-03-12T13:20:14.681Z,17.70
2024-03-12T13:22:42.421Z,16.88
2024-03-12T13:25:11.418Z,15.87
2024-03-12T13:27:39.907Z,15.11
2024-03-12T13:30:09.384Z,14.55
2024-03-12T13:32:37.179Z,14.57
2024-03-12T13:35:04.867Z,16.27
2024-03-12T13:37:35.046Z,17.39
2024-03-12T13:40:06.498Z,16.66
2024-03-12T13:42:36.400Z,15.69
2024-03-12T13:45:05.729Z,14.98
2024-03-12T13:47:35.072Z,14.46
2024-03-12T13:50:02.714Z,14.05
2024-03-12T13:52:31.783Z,14.17
2024-03-12T13:55:01.030Z,15.98
2024-03-12T13:57:28.886Z,17.22
2024-03-12T13:59:56.515Z,16.57
2024-03-12T14:02:24.431Z,15.61
2024-03-12T14:04:52.930Z,14.92
2024-03-12T14:07:20.717Z,14.40
2024-03-12T14:09:48.541Z,14.35
2024-03-12T14:12:16.169Z,16.04
2024-03-12T14:14:44.300Z,17.30
2024-03-12T14:17:12.378Z,16.66
2024-03-12T14:19:40.058Z,15.69
2024-03-12T14:22:08.683Z,14.97
2024-03-12T14:24:37.469Z,14.45
2024-03-12T14:27:06.691Z,14.04
2024-03-12T14:29:34.384Z,14.24
2024-03-12T14:32:02.054Z,16.05
2024-03-12T14:34:30.027Z,17.16
2024-03-12T14:36:57.696Z,16.41
2024-03-12T14:39:25.441Z,15.44
2024-03-12T14:41:53.178Z,14.75
2024-03-12T14:44:21.265Z,14.24
2024-03-12T14:46:48.996Z,14.28
2024-03-12T14:49:16.744Z,15.99
2024-03-12T14:51:44.636Z,17.13
2024-03-12T14:54:12.363Z,16.40
2024-03-12T14:56:39.976Z,15.43
2024-03-12T14:59:07.659Z,14.73
2024-03-12T15:01:35.458Z,14.23
2024-03-12T15:04:03.370Z,14.19
2024-03-12T15:06:31.068Z,15.81
2024-03-12T15:08:59.445Z,17.00
2024-03-12T15:11:27.614Z,16.31
2024-03-12T15:13:56.041Z,15.34
2024-03-12T15:16:23.786Z,14.65
2024-03-12T15:18:51.707Z,14.14
2024-03-12T15:21:19.375Z,14.18
2024-03-12T15:23:47.675Z,15.82
2024-03-12T15:26:15.571Z,16.88
2024-03-12T15:28:43.209Z,16.05
2024-03-12T15:31:10.862Z,15.02
2024-03-12T15:33:38.598Z,14.24
2024-03-12T15:36:06.406Z,14.04
2024-03-12T15:38:35.173Z,15.56
2024-03-12T15:41:02.951Z,16.82
2024-03-12T15:43:30.697Z,16.23
2024-03-12T15:45:58.422Z,15.14
2024-03-12T15:48:26.185Z,14.32
2024-03-12T15:50:55.515Z,13.72
2024-03-12T15:53:24.048Z,14.32
2024-03-12T15:55:51.962Z,16.00
2024-03-12T15:58:19.631Z,16.79
2024-03-12T16:00:48.056Z,15.87
2024-03-12T16:03:16.386Z,14.81
2024-03-12T16:05:44.221Z,14.04
2024-03-12T16:08:12.116Z,13.94
2024-03-12T16:10:39.831Z,15.59
2024-03-12T16:13:08.585Z,16.68
2024-03-12T16:15:37.058Z,15.91
2024-03-12T16:18:04.777Z,14.89
2024-03-12T16:20:32.498Z,14.13
2024-03-12T16:23:00.112Z,13.96
2024-03-12T16:25:28.225Z,15.58
2024-03-12T16:27:55.980Z,16.70
2024-03-12T16:30:23.671Z,15.95
2024-03-12T16:32:51.310Z,14.90
2024-03-12T16:35:18.959Z,14.13
2024-03-12T16:37:46.592Z,13.93
2024-03-12T16:40:14.453Z,15.44
2024-03-12T16:42:43.715Z,16.56
2024-03-12T16:45:11.933Z,15.78
2024-03-12T16:47:39.644Z,14.73
2024-03-12T16:50:09.736Z,13.94
2024-03-12T16:52:37.767Z,13.80
2024-03-12T16:55:05.466Z,15.42
2024-03-12T16:57:35.167Z,16.55
2024-03-12T17:00:03.351Z,15.76
2024-03-12T17:02:43.447Z,14.71
2024-03-12T17:05:12.947Z,13.85
2024-03-12T17:07:41.104Z,13.75
2024-03-12T17:10:08.834Z,15.39
2024-03-12T17:12:36.623Z,16.49
2024-03-12T17:15:04.238Z,15.69
2024-03-12T17:17:31.941Z,14.58
2024-03-12T17:19:59.640Z,13.76
2024-03-12T17:22:27.373Z,13.65
2024-03-12T17:24:55.140Z,15.24
2024-03-12T17:27:22.805Z,16.43
2024-03-12T17:29:50.425Z,15.81
2024-03-12T17:32:18.043Z,14.69
2024-03-12T17:34:45.660Z,13.81
2024-03-12T17:37:15.293Z,13.53
2024-03-12T17:39:43.672Z,15.03
2024-03-12T17:42:12.993Z,16.37
2024-03-12T17:44:40.653Z,15.86
2024-03-12T17:47:09.296Z,14.72
2024-03-12T17:49:39.964Z,13.80
2024-03-12T17:52:09.647Z,13.52
2024-03-12T17:54:40.833Z,15.01
2024-03-12T17:57:08.688Z,16.35
2024-03-12T17:59:39.923Z,15.88
2024-03-12T18:02:09.687Z,14.76
2024-03-12T18:04:37.369Z,13.90
2024-03-12T18:07:05.820Z,13.30
2024-03-12T18:09:35.587Z,13.79
2024-03-12T18:12:03.387Z,15.59
2024-03-12T18:14:33.039Z,16.35
2024-03-12T18:17:00.688Z,15.37
2024-03-12T18:19:28.391Z,14.33
2024-03-12T18:21:56.459Z,13.60
2024-03-12T18:24:24.068Z,13.53
2024-03-12T18:26:51.781Z,15.10
2024-03-12T18:29:19.471Z,16.16
2024-03-12T18:31:47.124Z,15.41
2024-03-12T18:34:18.607Z,14.37
2024-03-12T18:36:47.788Z,13.58
2024-03-12T18:39:16.519Z,13.21
2024-03-12T18:41:44.779Z,14.53
2024-03-12T18:44:12.398Z,16.04
2024-03-12T18:46:40.022Z,16.09
2024-03-12T18:49:07.739Z,14.98
2024-03-12T18:51:36.256Z,14.03
2024-03-12T18:54:04.045Z,13.35
2024-03-12T18:56:31.672Z,13.34
2024-03-12T18:58:59.301Z,14.99
2024-03-12T19:01:29.145Z,15.99
2024-03-12T19:03:58.097Z,15.12
2024-03-12T19:06:27.426Z,14.08
2024-03-12T19:08:55.629Z,13.29
2024-03-12T19:11:23.316Z,13.23
2024-03-12T19:13:52.636Z,14.84
2024-03-12T19:16:20.465Z,16.17
2024-03-12T19:18:51.336Z,15.72
2024-03-12T19:21:20.929Z,14.57
2024-03-12T19:23:50.175Z,13.69
2024-03-12T19:26:19.365Z,13.01
2024-03-12T19:28:47.342Z,13.38
2024-03-12T19:31:15.701Z,15.08
2024-03-12T19:33:45.221Z,15.87
2024-03-12T19:36:13.019Z,14.95
2024-03-12T19:38:40.755Z,13.87
2024-03-12T19:41:09.245Z,13.15
2024-03-12T19:43:37.115Z,13.97
2024-03-12T19:46:06.329Z,15.62
2024-03-12T19:48:33.985Z,15.72
2024-03-12T19:51:01.606Z,14.58
2024-03-12T19:53:29.246Z,13.58
2024-03-12T19:55:57.368Z,12.94
2024-03-12T19:58:26.471Z,13.93
2024-03-12T20:00:54.566Z,15.59
2024-03-12T20:03:24.173Z,15.98
2024-03-12T20:05:52.027Z,14.83
2024-03-12T20:08:19.976Z,13.79
2024-03-12T20:10:48.420Z,13.05
2024-03-12T20:13:17.366Z,13.43
2024-03-12T20:15:49.112Z,15.22
2024-03-12T20:18:16.835Z,16.02
2024-03-12T20:20:44.900Z,15.07
2024-03-12T20:23:12.752Z,13.97
2024-03-12T20:25:41.509Z,13.18
2024-03-12T20:28:11.326Z,13.16
2024-03-12T20:30:40.372Z,14.83
2024-03-12T20:33:10.178Z,15.93
2024-03-12T20:35:44.310Z,15.13
2024-03-12T20:38:12.235Z,13.95
2024-03-12T20:40:41.084Z,13.11
2024-03-12T20:43:09.543Z,13.01
2024-03-12T20:45:40.166Z,14.62
2024-03-12T20:48:11.748Z,15.91
2024-03-12T20:50:41.238Z,15.39
2024-03-12T20:53:09.100Z,14.24
2024-03-12T20:55:36.982Z,13.38
2024-03-12T20:58:04.657Z,13.31
2024-03-12T21:00:34.449Z,14.96
2024-03-12T21:03:02.681Z,15.99
2024-03-12T21:05:32.028Z,15.14
2024-03-12T21:07:59.932Z,14.04
2024-03-12T21:10:28.422Z,13.23
2024-03-12T21:12:57.926Z,13.17
2024-03-12T21:15:26.150Z,14.85
2024-03-12T21:17:54.794Z,15.91
2024-03-12T21:20:25.872Z,15.08
2024-03-12T21:22:53.734Z,13.97
2024-03-12T21:25:21.483Z,13.19
2024-03-12T21:27:49.580Z,13.37
2024-03-12T21:30:20.237Z,15.07
2024-03-12T21:32:49.009Z,15.94
2024-03-12T21:35:17.039Z,14.99
2024-03-12T21:37:46.119Z,13.89
2024-03-12T21:40:13.961Z,13.05
2024-03-12T21:42:43.950Z,12.98
2024-03-12T21:45:13.011Z,14.58
2024-03-12T21:47:46.818Z,15.81
2024-03-12T21:50:16.514Z,15.22
2024-03-12T21:52:44.591Z,13.97
2024-03-12T21:55:12.834Z,13.05
2024-03-12T21:57:44.605Z,13.39
2024-03-12T22:00:20.426Z,15.09
2024-03-12T22:02:49.689Z,15.73
2024-03-12T22:05:21.116Z,14.59
2024-03-12T22:07:50.988Z,13.39
2024-03-12T22:10:19.204Z,12.91
2024-03-12T22:12:47.170Z,14.27
2024-03-12T22:15:16.526Z,15.56
2024-03-12T22:17:45.131Z,15.34
2024-03-12T22:20:16.523Z,14.05
2024-03-12T22:22:45.591Z,12.99
2024-03-12T22:25:16.402Z,13.42
2024-03-12T22:27:44.274Z,15.10
2024-03-12T22:30:12.162Z,15.82
2024-03-12T22:32:40.007Z,14.75
2024-03-12T22:35:08.190Z,13.57
2024-03-12T22:37:37.370Z,13.08
2024-03-12T22:40:05.055Z,14.48
2024-03-12T22:42:35.464Z,15.76
2024-03-12T22:45:03.539Z,15.21
2024-03-12T22:47:31.724Z,14.04
2024-03-12T22:50:00.421Z,13.14
2024-03-12T22:52:29.279Z,13.05
2024-03-12T22:54:56.958Z,14.70
2024-03-12T22:57:24.730Z,15.67
2024-03-12T22:59:53.786Z,14.76
2024-03-12T23:02:21.448Z,13.55
2024-03-12T23:04:49.077Z,12.93
2024-03-12T23:07:17.780Z,14.16
2024-03-12T23:09:45.472Z,15.49
2024-03-12T23:12:13.115Z,15.13
2024-03-12T23:14:41.445Z,13.83
2024-03-12T23:17:09.115Z,12.86
2024-03-12T23:19:41.600Z,13.53
2024-03-12T23:22:10.665Z,15.19
2024-03-12T23:24:39.413Z,15.68
2024-03-12T23:27:07.217Z,14.50
2024-03-12T23:29:34.900Z,13.31
2024-03-12T23:32:02.576Z,12.93
2024-03-12T23:34:30.275Z,14.40
2024-03-12T23:37:00.027Z,15.83
2024-03-12T23:39:27.680Z,15.56
2024-03-12T23:41:55.549Z,14.24
2024-03-12T23:44:24.841Z,13.18
2024-03-12T23:46:52.473Z,12.94
2024-03-12T23:49:20.190Z,14.49
2024-03-12T23:51:48.134Z,15.98
2024-03-12T23:54:15.751Z,15.45
2024-03-12T23:56:43.377Z,14.19
2024-03-12T23:59:11.008Z,13.23
